Time;durP1;ratioP1;P1;durP2;ratioP2;P2;SDS_P1;SDS_P2;PMS_P1;PMS_P2;Temp;Humidity;BMP_temperature;BMP_pressure;BME280_temperature;BME280_humidity;BME280_pressure;Samples;Min_cycle;Max_cycle;Signal;HPM_P1;HPM_P2
2023/03/17 00:02:23;;;;;;;4.23;3.07;;;10.80;65.90;;;;;;5136980;27;20470;-59
2023/03/17 00:04:52;;;;;;;3.97;3.00;;;10.80;65.40;;;;;;5137241;27;20465;-58
2023/03/17 00:07:19;;;;;;;4.47;3.10;;;10.80;66.70;;;;;;5136975;27;20939;-59
2023/03/17 00:09:45;;;;;;;4.33;3.00;;;10.90;67.80;;;;;;5137143;27;20445;-59
2023/03/17 00:12:14;;;;;;;5.27;4.70;;;10.90;67.90;;;;;;5136788;27;20874;-59
2023/03/17 00:14:43;;;;;;;3.70;3.30;;;11.00;68.60;;;;;;5137100;27;20486;-59
2023/03/17 00:17:13;;;;;;;4.80;4.03;;;11.00;68.90;;;;;;5136568;27;20580;-59
2023/03/17 00:19:40;;;;;;;4.60;3.57;;;11.00;69.10;;;;;;5136945;27;20449;-59
2023/03/17 00:22:16;;;;;;;4.87;3.50;;;11.10;69.00;;;;;;5136783;27;20445;-59
2023/03/17 00:24:43;;;;;;;5.53;3.67;;;11.00;69.70;;;;;;5136968;27;20454;-59
2023/03/17 00:27:12;;;;;;;3.20;2.90;;;11.10;69.40;;;;;;5136762;27;20822;-59
2023/03/17 00:29:39;;;;;;;3.77;3.37;;;11.10;69.40;;;;;;5136671;27;20494;-59
2023/03/17 00:32:09;;;;;;;4.83;3.57;;;11.00;69.40;;;;;;5136607;27;20485;-59
2023/03/17 00:34:36;;;;;;;4.53;4.10;;;11.10;69.70;;;;;;5136407;27;20459;-59
2023/03/17 00:37:03;;;;;;;3.00;2.70;;;11.10;70.00;;;;;;5136196;27;21009;-59
2023/03/17 00:39:31;;;;;;;4.43;3.23;;;11.00;69.60;;;;;;5136270;27;20454;-59
2023/03/17 00:41:58;;;;;;;4.13;3.20;;;11.00;69.60;;;;;;5136567;27;20442;-59
2023/03/17 00:44:25;;;;;;;4.57;3.30;;;11.00;69.70;;;;;;5135828;27;20963;-59
2023/03/17 00:46:53;;;;;;;3.23;2.93;;;11.00;69.90;;;;;;5136445;27;20472;-59
2023/03/17 00:49:22;;;;;;;6.20;3.53;;;11.00;70.20;;;;;;5136359;27;20442;-59
2023/03/17 00:51:50;;;;;;;3.50;3.07;;;11.00;70.00;;;;;;5136288;27;20446;-59
2023/03/17 00:54:19;;;;;;;8.87;4.07;;;11.00;70.10;;;;;;5136156;27;20541;-59
2023/03/17 00:56:48;;;;;;;4.03;3.30;;;11.00;70.40;;;;;;5136652;27;20528;-59
2023/03/17 00:59:20;;;;;;;4.23;2.90;;;11.00;70.60;;;;;;5135841;27;20939;-59
2023/03/17 01:01:47;;;;;;;4.30;3.10;;;11.00;70.50;;;;;;5136090;27;20434;-59
2023/03/17 01:04:14;;;;;;;5.60;3.10;;;11.00;70.70;;;;;;5136027;27;20474;-59
2023/03/17 01:06:42;;;;;;;3.43;2.70;;;10.90;70.60;;;;;;5135874;27;20470;-58
2023/03/17 01:09:11;;;;;;;5.20;3.20;;;10.90;70.90;;;;;;5136089;27;20442;-59
2023/03/17 01:11:38;;;;;;;2.87;2.50;;;10.90;70.60;;;;;;5135998;27;20462;-59
2023/03/17 01:14:06;;;;;;;5.10;2.90;;;10.90;70.60;;;;;;5135840;27;20462;-59
2023/03/17 01:16:33;;;;;;;3.07;2.77;;;10.80;70.90;;;;;;5135399;27;20477;-59
2023/03/17 01:18:59;;;;;;;5.00;3.30;;;10.80;71.30;;;;;;5135768;27;20540;-59
2023/03/17 01:21:26;;;;;;;5.40;3.30;;;10.80;71.20;;;;;;5135737;27;20541;-59
2023/03/17 01:23:53;;;;;;;5.27;3.13;;;10.80;71.00;;;;;;5135631;27;20566;-59
2023/03/17 01:26:21;;;;;;;3.53;3.20;;;10.80;71.20;;;;;;5135593;27;20481;-59
2023/03/17 01:28:47;;;;;;;2.60;2.40;;;10.70;70.50;;;;;;5135588;27;20478;-59
2023/03/17 01:31:16;;;;;;;2.90;2.60;;;10.70;70.70;;;;;;5135609;27;20445;-59
2023/03/17 01:33:42;;;;;;;3.17;2.87;;;10.70;71.10;;;;;;5135413;27;20461;-59
2023/03/17 01:36:11;;;;;;;3.23;2.70;;;10.60;70.80;;;;;;5135385;27;20442;-59
2023/03/17 01:38:37;;;;;;;7.40;2.90;;;10.50;70.00;;;;;;5135061;27;20454;-59
2023/03/17 01:41:04;;;;;;;4.07;2.83;;;10.40;69.60;;;;;;5134961;27;20935;-59
2023/03/17 01:43:31;;;;;;;4.57;2.63;;;10.30;70.00;;;;;;5135187;27;20465;-58
2023/03/17 01:46:28;;;;;;;4.20;2.97;;;10.20;71.20;;;;;;5135163;27;20456;-59
2023/03/17 01:49:04;;;;;;;4.13;3.30;;;10.20;71.50;;;;;;5135192;27;20433;-59
2023/03/17 01:51:36;;;;;;;7.70;2.67;;;10.10;72.30;;;;;;5134867;27;20821;-59
2023/03/17 01:54:08;;;;;;;3.50;3.00;;;10.10;72.90;;;;;;5134643;27;21036;-59
2023/03/17 01:56:36;;;;;;;4.60;3.30;;;10.20;73.30;;;;;;5134324;27;20517;-59
2023/03/17 01:59:07;;;;;;;6.90;2.73;;;10.20;72.60;;;;;;5134987;27;20522;-59
2023/03/17 02:01:39;;;;;;;3.00;2.43;;;10.20;73.60;;;;;;5134989;27;20431;-59
2023/03/17 02:04:07;;;;;;;5.67;2.37;;;10.20;73.20;;;;;;5134836;27;20465;-58
2023/03/17 02:06:34;;;;;;;2.83;2.53;;;10.20;73.70;;;;;;5134830;27;20517;-58
2023/03/17 02:09:01;;;;;;;2.83;2.40;;;10.20;73.50;;;;;;5134865;27;20442;-59
2023/03/17 02:11:28;;;;;;;3.50;2.90;;;10.20;73.50;;;;;;5134835;27;20540;-59
2023/03/17 02:13:55;;;;;;;5.80;2.50;;;10.20;73.50;;;;;;5134350;27;20461;-59
2023/03/17 02:16:22;;;;;;;2.77;2.50;;;10.10;73.40;;;;;;5134722;27;20446;-59
2023/03/17 02:18:50;;;;;;;2.60;2.40;;;10.10;72.90;;;;;;5134748;27;20441;-59
2023/03/17 02:21:36;;;;;;;5.17;2.90;;;10.10;73.60;;;;;;5134835;27;20445;-59
2023/03/17 02:24:07;;;;;;;2.83;2.63;;;10.10;73.40;;;;;;5135781;27;20462;-59
2023/03/17 02:26:36;;;;;;;3.77;2.77;;;10.00;73.40;;;;;;5135204;27;20422;-58
2023/03/17 02:29:04;;;;;;;5.37;3.13;;;10.00;73.90;;;;;;5135143;27;20453;-59
2023/03/17 02:31:31;;;;;;;3.40;2.60;;;10.00;74.10;;;;;;5134806;27;20450;-59
2023/03/17 02:33:58;;;;;;;3.30;2.47;;;10.00;74.50;;;;;;5134662;27;20470;-58
2023/03/17 02:36:26;;;;;;;3.10;2.90;;;10.00;74.80;;;;;;5134533;27;20528;-59
2023/03/17 02:38:53;;;;;;;3.13;2.83;;;10.00;75.40;;;;;;5134022;27;20481;-59
2023/03/17 02:41:20;;;;;;;2.90;2.70;;;10.00;75.50;;;;;;5134506;27;20449;-59
2023/03/17 02:43:47;;;;;;;4.17;2.60;;;10.00;75.40;;;;;;5134342;27;20565;-59
2023/03/17 02:46:14;;;;;;;3.23;2.83;;;10.00;75.80;;;;;;5134497;28;20786;-59
2023/03/17 02:48:41;;;;;;;3.60;2.93;;;10.00;75.50;;;;;;5134380;28;20442;-59
2023/03/17 02:51:08;;;;;;;3.07;2.60;;;10.00;75.80;;;;;;5125539;28;20462;-58
2023/03/17 02:53:36;;;;;;;8.30;2.97;;;10.00;75.90;;;;;;5113645;28;20471;-59
2023/03/17 02:56:03;;;;;;;3.17;2.63;;;10.00;76.00;;;;;;5113805;28;20447;-59
2023/03/17 02:58:30;;;;;;;3.17;2.80;;;9.90;77.40;;;;;;5113574;28;20481;-58
2023/03/17 03:00:56;;;;;;;3.67;2.90;;;9.90;77.50;;;;;;5113650;28;20447;-59
2023/03/17 03:03:23;;;;;;;5.00;3.03;;;9.90;77.90;;;;;;5113397;28;20968;-59
2023/03/17 03:05:50;;;;;;;4.10;3.00;;;9.90;77.90;;;;;;5113662;28;20449;-58
2023/03/17 03:08:17;;;;;;;3.50;3.10;;;9.90;77.80;;;;;;5117496;28;20474;-59
2023/03/17 03:10:45;;;;;;;3.70;3.40;;;9.90;78.00;;;;;;5117770;28;20446;-59
2023/03/17 03:13:12;;;;;;;6.23;2.50;;;9.90;77.50;;;;;;5117666;28;21032;-59
2023/03/17 03:15:41;;;;;;;2.90;2.67;;;9.90;78.10;;;;;;5117240;28;20438;-59
2023/03/17 03:18:08;;;;;;;3.20;2.80;;;9.80;78.20;;;;;;5117665;28;20478;-59
2023/03/17 03:20:36;;;;;;;3.10;2.80;;;9.80;78.40;;;;;;5117590;28;20446;-59
2023/03/17 03:23:02;;;;;;;2.80;2.50;;;9.80;78.40;;;;;;5117488;28;20494;-59
2023/03/17 03:25:29;;;;;;;3.87;3.50;;;9.80;78.60;;;;;;5117360;28;20809;-58
2023/03/17 03:27:57;;;;;;;3.40;3.10;;;9.80;78.60;;;;;;5117423;28;20446;-59
2023/03/17 03:30:24;;;;;;;3.97;3.40;;;9.80;78.40;;;;;;5117408;28;20446;-59
2023/03/17 03:32:51;;;;;;;5.43;3.37;;;9.80;78.70;;;;;;5117374;28;20473;-59
2023/03/17 03:35:17;;;;;;;4.77;4.27;;;9.80;79.00;;;;;;5117040;28;20454;-58
2023/03/17 03:37:44;;;;;;;4.53;3.13;;;9.80;79.10;;;;;;5117037;28;20478;-59
2023/03/17 03:40:12;;;;;;;5.33;3.33;;;9.80;79.40;;;;;;5117249;28;20431;-59
2023/03/17 03:42:39;;;;;;;3.97;2.80;;;9.80;79.40;;;;;;5117094;28;20469;-58
2023/03/17 03:45:08;;;;;;;3.47;3.20;;;9.80;79.60;;;;;;5116869;28;20946;-59
2023/03/17 03:47:35;;;;;;;3.27;2.53;;;9.70;79.30;;;;;;5117083;28;20446;-59
2023/03/17 03:50:01;;;;;;;2.93;2.63;;;9.70;79.50;;;;;;5116955;28;20458;-59
2023/03/17 03:52:28;;;;;;;6.70;3.50;;;9.70;79.40;;;;;;5116514;28;20462;-59
2023/03/17 03:54:55;;;;;;;6.47;3.40;;;9.70;79.70;;;;;;5116857;28;20496;-58
2023/03/17 03:57:21;;;;;;;5.00;3.00;;;9.70;79.90;;;;;;5116770;28;20482;-59
2023/03/17 03:59:48;;;;;;;3.40;2.93;;;9.70;80.30;;;;;;5116905;28;20450;-59
2023/03/17 04:02:17;;;;;;;5.83;3.30;;;9.70;80.30;;;;;;5116625;28;20466;-59
2023/03/17 04:04:44;;;;;;;3.10;2.80;;;9.70;80.10;;;;;;5116844;28;20451;-59
2023/03/17 04:07:12;;;;;;;4.13;3.27;;;9.70;80.10;;;;;;5116298;28;20993;-58
2023/03/17 04:09:39;;;;;;;4.47;2.90;;;9.70;80.50;;;;;;5117194;28;20450;-59
2023/03/17 04:12:07;;;;;;;3.57;3.03;;;9.70;80.40;;;;;;5116590;28;20860;-59
2023/03/17 04:14:34;;;;;;;6.33;3.63;;;9.70;80.80;;;;;;5116139;28;20962;-59
2023/03/17 04:17:01;;;;;;;5.37;3.30;;;9.70;80.80;;;;;;5116475;28;20446;-59
2023/03/17 04:19:30;;;;;;;5.10;3.37;;;9.70;81.00;;;;;;5115701;28;20518;-59
2023/03/17 04:21:56;;;;;;;5.20;3.70;;;9.70;81.00;;;;;;5116044;28;20449;-59
2023/03/17 04:24:24;;;;;;;4.37;3.43;;;9.70;81.00;;;;;;5116073;28;20473;-59
2023/03/17 04:26:50;;;;;;;6.00;3.30;;;9.70;80.80;;;;;;5116255;28;20451;-59
2023/03/17 04:29:17;;;;;;;4.20;3.50;;;9.70;81.00;;;;;;5115965;28;20438;-59
2023/03/17 04:31:44;;;;;;;2.97;2.67;;;9.70;81.10;;;;;;5116160;28;20447;-58
2023/03/17 04:34:15;;;;;;;5.70;3.30;;;9.70;80.90;;;;;;5116013;28;20470;-59
2023/03/17 04:36:43;;;;;;;4.27;3.03;;;9.70;81.10;;;;;;5116075;28;20446;-58
2023/03/17 04:39:10;;;;;;;3.57;2.97;;;9.70;81.30;;;;;;5115627;28;20490;-59
2023/03/17 04:41:37;;;;;;;4.90;3.50;;;9.70;81.40;;;;;;5116055;28;20446;-59
2023/03/17 04:44:04;;;;;;;3.67;3.00;;;9.70;81.60;;;;;;5115983;28;20467;-59
2023/03/17 04:46:31;;;;;;;5.03;2.80;;;9.70;81.50;;;;;;5115857;28;20451;-59
2023/03/17 04:48:58;;;;;;;3.50;3.20;;;9.60;81.30;;;;;;5115830;28;20443;-58
2023/03/17 04:51:25;;;;;;;9.23;3.80;;;9.60;81.50;;;;;;5115794;28;20492;-59
2023/03/17 04:53:53;;;;;;;3.40;2.73;;;9.70;81.90;;;;;;5115686;28;20458;-59
2023/03/17 04:56:20;;;;;;;3.83;3.13;;;9.70;81.90;;;;;;5115656;28;20485;-59
2023/03/17 04:58:46;;;;;;;4.53;3.30;;;9.60;81.70;;;;;;5115550;28;20482;-59
2023/03/17 05:01:13;;;;;;;3.57;3.23;;;9.60;81.70;;;;;;5115672;28;20455;-59
2023/03/17 05:03:40;;;;;;;4.13;3.00;;;9.60;81.80;;;;;;5115543;28;20463;-59
2023/03/17 05:06:07;;;;;;;5.17;3.57;;;9.60;81.90;;;;;;5115457;28;20446;-58
2023/03/17 05:08:34;;;;;;;4.97;3.57;;;9.70;82.00;;;;;;5115454;28;20538;-59
2023/03/17 05:11:02;;;;;;;5.33;3.70;;;9.60;82.10;;;;;;5115155;28;20467;-59
2023/03/17 05:13:29;;;;;;;6.03;4.30;;;9.70;82.20;;;;;;5115358;28;20476;-59
2023/03/17 05:15:58;;;;;;;3.40;3.10;;;9.60;82.30;;;;;;5115408;28;20442;-59
2023/03/17 05:18:25;;;;;;;4.90;3.37;;;9.60;82.20;;;;;;5116074;28;20483;-59
2023/03/17 05:20:52;;;;;;;3.60;3.20;;;9.60;82.30;;;;;;5115793;28;20443;-59
2023/03/17 05:23:19;;;;;;;6.87;3.70;;;9.60;82.10;;;;;;5116033;28;20492;-59
2023/03/17 05:25:47;;;;;;;7.20;3.77;;;9.60;82.10;;;;;;5115578;28;20447;-58
2023/03/17 05:28:15;;;;;;;4.60;3.70;;;9.60;82.20;;;;;;5115596;28;20449;-59
2023/03/17 05:30:43;;;;;;;5.10;3.70;;;9.60;82.40;;;;;;5114102;28;20442;-59
2023/03/17 05:33:10;;;;;;;5.40;4.50;;;9.60;82.60;;;;;;5115042;28;20505;-59
2023/03/17 05:35:36;;;;;;;7.40;4.60;;;9.60;82.70;;;;;;5114688;28;20484;-58
2023/03/17 05:38:03;;;;;;;5.50;4.80;;;9.60;82.70;;;;;;5114685;28;20498;-59
2023/03/17 05:40:30;;;;;;;6.20;4.70;;;9.50;82.80;;;;;;5114852;28;20446;-59
2023/03/17 05:42:56;;;;;;;7.40;4.30;;;9.60;83.00;;;;;;5114806;28;20466;-59
2023/03/17 05:45:24;;;;;;;5.97;3.47;;;9.50;83.20;;;;;;5114741;28;20563;-58
2023/03/17 05:47:51;;;;;;;4.80;4.10;;;9.50;83.10;;;;;;5114752;28;20500;-59
2023/03/17 05:50:18;;;;;;;4.20;3.80;;;9.60;83.20;;;;;;5114700;28;20501;-58
2023/03/17 05:52:46;;;;;;;4.57;3.67;;;9.60;83.30;;;;;;5114511;28;20474;-58
2023/03/17 05:55:13;;;;;;;5.40;4.10;;;9.60;83.20;;;;;;5114685;28;20485;-59
2023/03/17 05:57:40;;;;;;;4.67;3.97;;;9.60;83.30;;;;;;5114600;28;20482;-59
2023/03/17 06:00:08;;;;;;;4.07;3.53;;;9.60;83.40;;;;;;5114606;28;20937;-59
2023/03/17 06:02:36;;;;;;;5.80;4.07;;;9.60;83.30;;;;;;5114115;28;20470;-58
2023/03/17 06:05:03;;;;;;;7.37;3.73;;;9.60;83.30;;;;;;5114538;28;20866;-59
2023/03/17 06:07:30;;;;;;;4.50;4.10;;;9.60;83.20;;;;;;5114449;28;20443;-58
2023/03/17 06:09:57;;;;;;;4.93;3.90;;;9.60;83.30;;;;;;5114455;28;20439;-59
2023/03/17 06:12:24;;;;;;;4.30;3.90;;;9.60;83.40;;;;;;5113874;28;21048;-59
2023/03/17 06:14:51;;;;;;;8.23;4.33;;;9.60;83.20;;;;;;5114344;28;20442;-59
2023/03/17 06:17:18;;;;;;;4.63;3.70;;;9.60;83.40;;;;;;5114194;28;20447;-58
2023/03/17 06:19:46;;;;;;;4.13;3.63;;;9.70;83.40;;;;;;5114190;28;20485;-59
2023/03/17 06:22:13;;;;;;;6.13;4.30;;;9.70;83.40;;;;;;5114240;28;20873;-58
2023/03/17 06:24:40;;;;;;;4.83;4.43;;;9.70;83.30;;;;;;5113996;28;20971;-59
2023/03/17 06:27:06;;;;;;;5.67;4.57;;;9.70;83.40;;;;;;5114398;28;20443;-59
2023/03/17 06:29:33;;;;;;;5.00;4.17;;;9.70;83.40;;;;;;5114062;28;20446;-59
2023/03/17 06:32:00;;;;;;;5.23;3.80;;;9.80;83.40;;;;;;5113912;28;20439;-58
2023/03/17 06:34:26;;;;;;;5.97;3.63;;;9.80;83.20;;;;;;5113972;28;20447;-59
2023/03/17 06:36:54;;;;;;;5.07;3.70;;;9.80;83.10;;;;;;5113872;28;20447;-59
2023/03/17 06:39:21;;;;;;;5.50;3.40;;;9.90;83.10;;;;;;5113520;28;20606;-59
2023/03/17 06:41:49;;;;;;;4.30;3.90;;;9.90;83.00;;;;;;5113523;28;20451;-59
2023/03/17 06:44:16;;;;;;;4.27;3.17;;;9.90;82.80;;;;;;5113408;28;21053;-59
2023/03/17 06:46:42;;;;;;;4.23;3.47;;;10.00;81.50;;;;;;5114137;28;20447;-59
2023/03/17 06:49:12;;;;;;;4.00;3.60;;;10.00;81.30;;;;;;5113806;28;20937;-59
2023/03/17 06:51:39;;;;;;;5.70;3.70;;;10.10;81.00;;;;;;5113738;28;20464;-59
2023/03/17 06:54:07;;;;;;;4.73;3.70;;;10.10;81.00;;;;;;5113661;28;20905;-58
2023/03/17 06:56:34;;;;;;;6.57;4.40;;;10.20;81.20;;;;;;5113774;28;20447;-59
2023/03/17 06:59:01;;;;;;;5.17;3.40;;;10.20;81.20;;;;;;5113647;28;20475;-59
2023/03/17 07:01:28;;;;;;;4.03;3.63;;;10.30;81.20;;;;;;5113890;28;20457;-58
2023/03/17 07:03:55;;;;;;;4.17;3.77;;;10.30;81.10;;;;;;5113680;28;20467;-59
2023/03/17 07:06:22;;;;;;;4.73;3.60;;;10.40;80.60;;;;;;5113316;28;20481;-58
2023/03/17 07:08:49;;;;;;;4.00;3.60;;;10.50;80.50;;;;;;5113593;28;20848;-59
2023/03/17 07:11:17;;;;;;;4.77;3.70;;;10.50;80.40;;;;;;5113523;28;21035;-59
2023/03/17 07:13:45;;;;;;;3.63;3.27;;;10.60;80.30;;;;;;5113507;28;20489;-58
2023/03/17 07:16:18;;;;;;;5.33;4.03;;;10.70;80.30;;;;;;5113703;28;20451;-59
2023/03/17 07:18:45;;;;;;;4.93;3.77;;;10.80;80.20;;;;;;5113533;28;20463;-59
2023/03/17 07:21:12;;;;;;;6.50;4.63;;;10.80;79.90;;;;;;5113672;28;20447;-59
2023/03/17 07:23:39;;;;;;;5.77;3.97;;;10.90;79.60;;;;;;5113464;28;20466;-58
2023/03/17 07:26:06;;;;;;;5.83;3.90;;;11.00;79.30;;;;;;5113225;28;20948;-58
2023/03/17 07:28:34;;;;;;;5.33;4.63;;;11.20;79.10;;;;;;5113191;28;20940;-59
2023/03/17 07:31:01;;;;;;;5.13;4.30;;;11.30;78.70;;;;;;5113344;28;20446;-58
2023/03/17 07:33:29;;;;;;;4.53;3.70;;;11.40;78.10;;;;;;5113375;28;20546;-58
2023/03/17 07:35:56;;;;;;;3.87;3.47;;;11.50;77.50;;;;;;5113248;28;20573;-58
2023/03/17 07:38:23;;;;;;;6.73;3.60;;;11.60;77.10;;;;;;5113321;28;20496;-58
2023/03/17 07:40:51;;;;;;;4.70;3.80;;;11.60;76.60;;;;;;5112957;28;21014;-59
2023/03/17 07:43:19;;;;;;;4.10;3.37;;;11.80;76.20;;;;;;5113244;28;20474;-59
2023/03/17 07:45:47;;;;;;;5.20;3.57;;;11.90;75.60;;;;;;5113261;28;20453;-59
2023/03/17 07:48:13;;;;;;;4.67;3.30;;;12.00;74.70;;;;;;5113347;28;20455;-59
2023/03/17 07:50:41;;;;;;;4.93;3.70;;;12.10;73.90;;;;;;5113262;28;20504;-59
2023/03/17 07:53:07;;;;;;;6.23;4.10;;;12.20;73.70;;;;;;5113731;28;20810;-59
2023/03/17 07:55:35;;;;;;;4.33;3.93;;;12.20;73.30;;;;;;5117269;28;20446;-59
2023/03/17 07:58:02;;;;;;;5.87;3.77;;;12.20;73.10;;;;;;5116728;28;20817;-59
2023/03/17 08:00:29;;;;;;;3.63;3.33;;;12.30;73.10;;;;;;5116787;28;20487;-59
2023/03/17 08:02:57;;;;;;;3.13;2.87;;;12.30;73.00;;;;;;5117015;28;20470;-59
2023/03/17 08:05:24;;;;;;;4.43;3.83;;;12.30;72.70;;;;;;5116517;28;20947;-58
2023/03/17 08:07:51;;;;;;;4.10;3.60;;;12.30;72.60;;;;;;5119647;28;20451;-59
2023/03/17 08:10:18;;;;;;;4.23;3.40;;;12.40;72.60;;;;;;5121988;28;20468;-59
2023/03/17 08:12:45;;;;;;;9.17;3.90;;;12.40;72.50;;;;;;5118838;28;20471;-59
2023/03/17 08:15:12;;;;;;;4.60;3.10;;;12.40;72.40;;;;;;5118634;28;20455;-59
2023/03/17 08:17:40;;;;;;;3.83;3.37;;;12.50;72.30;;;;;;5117904;28;20507;-59
2023/03/17 08:20:10;;;;;;;10.53;4.10;;;12.60;72.20;;;;;;5117756;28;20528;-59
2023/03/17 08:22:37;;;;;;;5.20;3.70;;;12.60;72.00;;;;;;5116299;28;20968;-59
2023/03/17 08:25:04;;;;;;;6.70;4.10;;;12.70;72.00;;;;;;5116169;28;20820;-58
2023/03/17 08:27:31;;;;;;;6.80;4.23;;;12.80;71.80;;;;;;5116375;28;20443;-59
2023/03/17 08:29:57;;;;;;;4.97;3.67;;;12.80;71.30;;;;;;5116336;28;20451;-59
2023/03/17 08:32:24;;;;;;;5.40;3.80;;;12.90;70.90;;;;;;5116339;28;20466;-59
2023/03/17 08:34:53;;;;;;;7.07;4.10;;;13.00;70.70;;;;;;5116921;28;20912;-58
2023/03/17 08:37:23;;;;;;;5.30;4.20;;;13.10;70.60;;;;;;5115596;28;20907;-58
2023/03/17 08:39:50;;;;;;;5.23;4.07;;;13.10;70.20;;;;;;5115602;28;20474;-59
2023/03/17 08:42:16;;;;;;;4.30;3.20;;;13.20;70.00;;;;;;5116034;28;20462;-59
2023/03/17 08:44:43;;;;;;;4.33;3.40;;;13.30;69.10;;;;;;5115962;28;20451;-58
2023/03/17 08:47:10;;;;;;;6.80;3.83;;;13.40;68.70;;;;;;5115865;28;20534;-58
2023/03/17 08:49:37;;;;;;;5.27;3.47;;;13.50;68.60;;;;;;5115915;28;20492;-59
2023/03/17 08:52:04;;;;;;;6.70;3.37;;;13.50;68.20;;;;;;5115667;27;20466;-59
2023/03/17 08:54:34;;;;;;;3.80;3.43;;;13.60;68.00;;;;;;5115857;28;20474;-59
2023/03/17 08:57:01;;;;;;;7.73;3.70;;;13.60;67.50;;;;;;5116121;28;20450;-59
2023/03/17 08:59:28;;;;;;;14.80;3.50;;;13.70;67.20;;;;;;5115583;28;20478;-58
2023/03/17 09:01:55;;;;;;;3.80;3.40;;;13.80;66.60;;;;;;5115479;28;20812;-58
2023/03/17 09:04:22;;;;;;;4.10;3.50;;;13.80;66.40;;;;;;5115389;28;20997;-59
2023/03/17 09:06:50;;;;;;;6.93;4.00;;;13.80;66.00;;;;;;5115444;28;20519;-58
2023/03/17 09:09:17;;;;;;;7.77;4.00;;;13.80;66.70;;;;;;5115728;28;20443;-59
2023/03/17 09:11:45;;;;;;;3.80;3.30;;;13.90;66.10;;;;;;5115231;28;20872;-59
2023/03/17 09:14:11;;;;;;;8.00;4.10;;;14.00;66.00;;;;;;5115636;28;20462;-59
2023/03/17 09:16:38;;;;;;;5.03;3.43;;;14.10;65.70;;;;;;5115503;28;20450;-59
2023/03/17 09:19:05;;;;;;;3.37;3.07;;;14.20;65.40;;;;;;5132034;27;20500;-59
2023/03/17 09:21:32;;;;;;;6.20;4.00;;;14.30;64.60;;;;;;5135902;27;20452;-58
2023/03/17 09:23:59;;;;;;;9.50;4.10;;;14.30;64.80;;;;;;5135569;27;20458;-59
2023/03/17 09:26:25;;;;;;;5.70;3.83;;;14.40;65.00;;;;;;5135621;27;20446;-58
2023/03/17 09:28:53;;;;;;;4.40;3.43;;;14.50;64.90;;;;;;5135614;27;20442;-59
2023/03/17 09:31:20;;;;;;;9.87;3.90;;;14.50;64.90;;;;;;5135322;27;20984;-59
2023/03/17 09:33:47;;;;;;;5.00;3.23;;;14.60;65.10;;;;;;5135445;27;20821;-59
2023/03/17 09:36:14;;;;;;;3.77;3.30;;;14.70;64.90;;;;;;5135337;27;20442;-59
2023/03/17 09:38:40;;;;;;;3.97;3.33;;;14.80;64.30;;;;;;5135374;27;20453;-59
2023/03/17 09:41:27;;;;;;;6.43;3.80;;;14.90;64.30;;;;;;5135331;27;20481;-59
2023/03/17 09:44:02;;;;;;;5.47;3.30;;;15.00;64.10;;;;;;5135369;27;20493;-59
2023/03/17 09:46:36;;;;;;;4.20;3.30;;;15.20;63.80;;;;;;5135325;27;20438;-58
2023/03/17 09:49:08;;;;;;;5.57;3.60;;;15.40;63.50;;;;;;5135249;27;20841;-59
2023/03/17 09:51:35;;;;;;;4.00;2.90;;;15.50;63.10;;;;;;5135314;27;20426;-59
2023/03/17 09:54:04;;;;;;;6.00;3.43;;;15.70;62.20;;;;;;5134935;27;20473;-58
2023/03/17 09:56:33;;;;;;;5.70;3.50;;;15.90;61.60;;;;;;5135186;27;20533;-59
2023/03/17 10:02:27;;;;;;;3.53;3.13;;;16.30;60.70;;;;;;5134859;27;20425;-59
2023/03/17 10:04:54;;;;;;;4.90;3.23;;;16.50;60.00;;;;;;5134886;27;20422;-58
2023/03/17 10:07:27;;;;;;;5.03;3.07;;;16.70;58.50;;;;;;5134881;27;20441;-59
2023/03/17 10:10:01;;;;;;;4.70;3.17;;;16.80;58.40;;;;;;5135140;27;20472;-59
2023/03/17 10:12:42;;;;;;;4.17;3.13;;;16.90;57.90;;;;;;5134842;27;20521;-59
2023/03/17 10:15:17;;;;;;;3.70;2.80;;;17.00;57.40;;;;;;5134505;27;20426;-59
2023/03/17 10:17:46;;;;;;;4.40;3.37;;;17.10;55.90;;;;;;5133586;27;20464;-58
2023/03/17 10:20:17;;;;;;;4.53;2.60;;;17.10;55.70;;;;;;5133327;27;20473;-58
2023/03/17 10:22:47;;;;;;;4.00;2.30;;;17.20;56.00;;;;;;5120429;27;20469;-59
2023/03/17 10:25:16;;;;;;;3.10;2.77;;;17.40;56.50;;;;;;5134464;27;20491;-58
2023/03/17 10:27:48;;;;;;;4.70;3.40;;;17.90;55.00;;;;;;5134423;27;20445;-59
2023/03/17 10:30:18;;;;;;;4.83;2.10;;;18.50;53.90;;;;;;5134707;27;20418;-59
2023/03/17 10:32:47;;;;;;;3.80;2.60;;;19.30;50.40;;;;;;5134814;27;20504;-59
2023/03/17 10:35:15;;;;;;;4.40;2.63;;;19.60;48.60;;;;;;5134531;27;20446;-59
2023/03/17 10:37:42;;;;;;;3.83;2.33;;;20.00;48.40;;;;;;5134553;27;20450;-59
2023/03/17 10:40:20;;;;;;;4.70;2.37;;;20.50;48.50;;;;;;5134587;27;20461;-59
2023/03/17 10:42:48;;;;;;;6.60;2.93;;;20.80;44.90;;;;;;5134144;27;20466;-59
2023/03/17 10:45:23;;;;;;;3.57;2.37;;;21.10;45.30;;;;;;5134519;27;20869;-58
2023/03/17 10:47:55;;;;;;;3.97;2.30;;;21.60;44.70;;;;;;5134499;27;20429;-59
2023/03/17 10:50:24;;;;;;;9.93;2.70;;;22.00;43.50;;;;;;5134396;28;20430;-59
2023/03/17 10:52:54;;;;;;;5.73;2.47;;;22.40;42.80;;;;;;5134268;27;20549;-59
2023/03/17 10:55:23;;;;;;;3.30;2.40;;;22.80;40.20;;;;;;5134501;28;20429;-59
2023/03/17 10:57:52;;;;;;;3.90;2.70;;;23.10;39.60;;;;;;5134457;28;20453;-59
2023/03/17 11:00:21;;;;;;;2.73;1.70;;;23.40;39.10;;;;;;5134437;28;20576;-59
2023/03/17 11:02:55;;;;;;;3.23;2.40;;;23.90;39.50;;;;;;5134878;27;20596;-59
2023/03/17 11:05:23;;;;;;;5.13;2.50;;;24.30;39.00;;;;;;5135777;28;20805;-59
2023/03/17 11:07:57;;;;;;;3.13;2.40;;;24.90;38.40;;;;;;5135260;28;20510;-60
2023/03/17 11:10:26;;;;;;;6.80;2.80;;;25.50;36.90;;;;;;5134549;28;20435;-59
2023/03/17 11:12:59;;;;;;;3.33;2.20;;;25.80;35.30;;;;;;5133810;27;20491;-59
2023/03/17 11:15:32;;;;;;;6.37;3.00;;;26.10;33.90;;;;;;5135401;28;20755;-59
2023/03/17 11:18:02;;;;;;;2.83;2.60;;;26.20;33.70;;;;;;5134618;28;20434;-59
2023/03/17 11:20:43;;;;;;;4.27;2.60;;;26.60;33.10;;;;;;5133807;28;20580;-59
2023/03/17 11:23:21;;;;;;;5.50;3.00;;;27.20;33.60;;;;;;5134299;27;20473;-59
2023/03/17 11:25:54;;;;;;;4.90;3.30;;;27.90;32.70;;;;;;5134319;28;20429;-59
2023/03/17 11:28:23;;;;;;;4.80;3.10;;;28.60;31.10;;;;;;5135000;27;20432;-60
2023/03/17 11:31:06;;;;;;;5.03;2.83;;;29.20;30.20;;;;;;5137975;27;20449;-59
2023/03/17 11:33:39;;;;;;;4.07;2.87;;;29.70;29.10;;;;;;5138061;27;20500;-59
2023/03/17 11:36:19;;;;;;;7.80;2.80;;;29.90;28.00;;;;;;5138045;27;20464;-59
2023/03/17 11:38:57;;;;;;;4.97;2.87;;;30.00;27.70;;;;;;5137918;27;20460;-59
2023/03/17 11:41:40;;;;;;;4.50;2.67;;;30.20;28.70;;;;;;5137976;27;20418;-59
2023/03/17 11:44:42;;;;;;;5.07;2.80;;;30.50;28.30;;;;;;5137752;27;20992;-60
2023/03/17 11:47:22;;;;;;;4.33;2.93;;;30.70;28.00;;;;;;5137731;27;20474;-58
2023/03/17 11:49:55;;;;;;;5.23;3.07;;;30.80;27.70;;;;;;5137658;27;20473;-57
2023/03/17 11:52:28;;;;;;;4.57;2.50;;;30.80;27.70;;;;;;5118508;27;20493;-60
2023/03/17 11:55:03;;;;;;;2.90;2.60;;;30.70;27.70;;;;;;5117009;28;20434;-59
2023/03/17 11:57:35;;;;;;;7.20;2.70;;;30.60;27.60;;;;;;5116665;28;20813;-59
2023/03/17 12:00:05;;;;;;;5.30;2.77;;;30.20;27.50;;;;;;5116851;28;20426;-59
2023/03/17 12:02:39;;;;;;;5.13;2.43;;;29.60;27.80;;;;;;5117029;28;20466;-58
2023/03/17 12:05:10;;;;;;;4.30;2.80;;;28.80;29.00;;;;;;5116893;28;20794;-58
2023/03/17 12:07:43;;;;;;;3.40;2.80;;;28.30;29.90;;;;;;5116629;28;20799;-59
2023/03/17 12:10:19;;;;;;;4.60;3.00;;;27.80;30.50;;;;;;5116481;28;20524;-59
2023/03/17 12:12:51;;;;;;;2.70;2.40;;;27.40;31.00;;;;;;5117123;28;20473;-59
2023/03/17 12:15:25;;;;;;;5.93;3.00;;;27.30;31.60;;;;;;5116673;28;20757;-59
2023/03/17 12:17:57;;;;;;;2.33;2.00;;;27.20;31.80;;;;;;5116579;28;20435;-59
2023/03/17 12:20:33;;;;;;;6.20;2.53;;;27.20;32.00;;;;;;5116212;28;20437;-59
2023/03/17 12:23:05;;;;;;;7.93;2.30;;;27.20;31.80;;;;;;5116440;28;20462;-60
2023/03/17 12:25:35;;;;;;;2.87;2.40;;;27.10;31.70;;;;;;5116366;28;20438;-60
2023/03/17 12:28:07;;;;;;;7.63;3.10;;;27.00;31.90;;;;;;5116050;28;20832;-60
2023/03/17 12:30:44;;;;;;;2.60;2.40;;;26.90;32.00;;;;;;5116284;28;20496;-59
2023/03/17 12:33:19;;;;;;;5.13;2.77;;;26.80;32.10;;;;;;5116252;28;20680;-59
2023/03/17 12:35:47;;;;;;;3.33;2.53;;;26.60;32.20;;;;;;5116196;27;20427;-57
2023/03/17 12:38:22;;;;;;;11.50;2.73;;;26.40;32.90;;;;;;5130948;27;20546;-59
2023/03/17 12:41:18;;;;;;;6.23;2.53;;;26.10;33.20;;;;;;5136114;27;20425;-59
2023/03/17 12:43:55;;;;;;;3.80;2.87;;;25.90;33.70;;;;;;5136438;27;20540;-58
2023/03/17 12:46:35;;;;;;;5.80;2.90;;;25.70;33.90;;;;;;5136468;27;20437;-59
2023/03/17 12:49:31;;;;;;;2.40;2.20;;;25.40;34.30;;;;;;5136156;27;20915;-59
2023/03/17 12:52:11;;;;;;;4.00;3.33;;;25.30;34.90;;;;;;5136383;27;20515;-59
2023/03/17 12:54:39;;;;;;;4.03;2.67;;;25.10;35.20;;;;;;5136686;27;20438;-57
2023/03/17 12:57:13;;;;;;;8.50;2.60;;;25.00;35.70;;;;;;5136310;27;20450;-59
2023/03/17 12:59:42;;;;;;;4.80;2.70;;;24.90;35.80;;;;;;5135952;27;20940;-59
2023/03/17 13:02:17;;;;;;;7.13;2.37;;;24.90;36.00;;;;;;5136028;27;20441;-59
2023/03/17 13:04:52;;;;;;;2.50;2.30;;;25.00;36.30;;;;;;5136473;27;20430;-60